Pinhais, Brazil
Current Conditions -  °F | °C
As of 2:00 AM on Saturday 25 Oct 2014 (Local Time) from SBCT Reporting Station
Haze Haze  
Wind Chill: 61°   Ceiling: 100
Heat Index: 61°   Visibility: 3mi
Dew Point: 59°   Wind: 5mph
Humidity: 94%   Direction: 120°ESE
Pressure: 30.06"   Gusts: NA
Location:  25.54°S, 49.22°W
Report Text: SBCT 250400Z 12004KT 5000 BR BKN001 OVC004 16/15 Q1018
Loading
Personal Weather Stations






























Interactive Weather Map
Tropical Storm Tracking
New forecast layout! Learn more

10-Day Weather Forecast

Advertisements
Track Severe Weather on mobile